createdAt,value
2018-11-29T00:01:35.734Z,13.43
2018-11-29T00:06:38.293Z,10.83
2018-11-29T00:11:40.823Z,10.03
2018-11-29T00:16:43.341Z,9.53
2018-11-29T00:21:45.857Z,8.53
2018-11-29T00:26:48.470Z,9.00
2018-11-29T00:31:51.045Z,12.67
2018-11-29T00:36:53.571Z,11.37
2018-11-29T00:41:56.090Z,9.53
2018-11-29T00:46:58.637Z,11.03
2018-11-29T00:52:01.174Z,9.90
2018-11-29T00:57:04.170Z,10.10
2018-11-29T01:02:06.687Z,10.67
2018-11-29T01:07:09.342Z,10.13
2018-11-29T01:12:11.879Z,10.37
2018-11-29T01:17:14.489Z,10.40
2018-11-29T01:22:17.014Z,11.50
2018-11-29T01:27:19.536Z,14.00
2018-11-29T01:32:22.167Z,10.27
2018-11-29T01:37:24.677Z,9.67
2018-11-29T01:42:27.202Z,10.07
2018-11-29T01:47:29.721Z,9.27
2018-11-29T01:52:32.254Z,9.13
2018-11-29T01:57:34.906Z,10.43
2018-11-29T02:02:37.434Z,9.50
2018-11-29T02:07:39.982Z,10.47
2018-11-29T02:12:42.546Z,10.07
2018-11-29T02:17:45.135Z,10.33
2018-11-29T02:22:47.887Z,8.07
2018-11-29T02:27:50.543Z,8.70
2018-11-29T02:32:53.290Z,7.60
2018-11-29T02:37:55.843Z,10.57
2018-11-29T02:42:58.389Z,14.00
2018-11-29T02:48:00.897Z,13.93
2018-11-29T02:53:03.450Z,12.57
2018-11-29T02:58:05.981Z,15.23
2018-11-29T03:03:08.501Z,16.57
2018-11-29T03:08:11.130Z,16.70
2018-11-29T03:13:13.667Z,18.67
2018-11-29T03:18:16.189Z,16.97
2018-11-29T03:23:18.722Z,16.03
2018-11-29T03:28:21.250Z,15.07
2018-11-29T03:33:23.799Z,10.60
2018-11-29T03:38:26.434Z,7.77
2018-11-29T03:43:29.012Z,7.73
2018-11-29T03:48:31.523Z,7.00
2018-11-29T03:53:34.063Z,6.73
2018-11-29T03:58:36.601Z,8.57
2018-11-29T04:03:39.273Z,13.77
2018-11-29T04:08:41.777Z,17.50
2018-11-29T04:13:44.305Z,26.67
2018-11-29T04:18:46.842Z,22.63
2018-11-29T04:23:49.362Z,29.80
2018-11-29T04:28:51.979Z,24.83
2018-11-29T04:33:54.516Z,21.47
2018-11-29T04:38:57.082Z,20.13
2018-11-29T04:43:59.678Z,21.97
2018-11-29T04:49:02.203Z,20.17
2018-11-29T04:54:05.636Z,22.87
2018-11-29T04:59:08.370Z,19.80
2018-11-29T05:04:10.914Z,20.67
2018-11-29T05:09:13.456Z,21.00
2018-11-29T05:14:15.975Z,24.27
2018-11-29T05:19:18.503Z,47.20
2018-11-29T05:24:21.162Z,38.47
2018-11-29T05:29:23.718Z,43.13
2018-11-29T05:34:26.240Z,35.53
2018-11-29T05:39:28.799Z,34.33
2018-11-29T05:44:31.354Z,33.00
2018-11-29T05:49:33.978Z,48.17
2018-11-29T05:54:36.523Z,39.50
2018-11-29T05:59:39.046Z,31.37
2018-11-29T06:04:41.599Z,42.63
2018-11-29T06:09:44.143Z,41.77
2018-11-29T06:14:46.690Z,39.37
2018-11-29T06:19:49.213Z,35.53
2018-11-29T06:24:51.722Z,30.83
2018-11-29T06:29:54.235Z,28.73
2018-11-29T06:34:56.765Z,24.97
2018-11-29T06:39:59.962Z,32.10
2018-11-29T06:45:02.647Z,29.20
2018-11-29T06:50:07.888Z,29.03
2018-11-29T06:55:27.358Z,33.33
2018-11-29T07:00:30.412Z,32.13
2018-11-29T07:05:32.946Z,34.50
2018-11-29T07:10:35.789Z,36.17
2018-11-29T07:15:38.324Z,31.03
2018-11-29T07:20:40.982Z,42.10
2018-11-29T07:25:43.408Z,42.97
2018-11-29T07:30:45.945Z,38.10
2018-11-29T07:35:48.541Z,41.00
2018-11-29T07:40:51.128Z,37.57
2018-11-29T07:45:53.663Z,33.73
2018-11-29T07:50:56.214Z,27.23
2018-11-29T07:55:58.740Z,25.33
2018-11-29T08:01:01.279Z,22.83
2018-11-29T08:06:03.901Z,24.07
2018-11-29T08:11:06.492Z,21.83
2018-11-29T08:16:09.101Z,18.50
2018-11-29T08:21:11.630Z,18.73
2018-11-29T08:26:14.290Z,19.67
2018-11-29T08:31:16.942Z,20.90
2018-11-29T08:36:19.587Z,18.00
2018-11-29T08:41:22.133Z,23.20
2018-11-29T08:46:24.677Z,14.20
2018-11-29T08:51:27.250Z,20.60
2018-11-29T08:56:29.826Z,17.67
2018-11-29T09:01:32.385Z,24.77
2018-11-29T09:06:34.921Z,13.17
2018-11-29T09:11:37.518Z,14.63
2018-11-29T09:16:40.104Z,12.97
2018-11-29T09:21:42.681Z,12.33
2018-11-29T09:26:45.215Z,3.40
2018-11-29T09:31:47.777Z,10.63
2018-11-29T09:36:50.359Z,9.73
2018-11-29T09:41:52.914Z,6.63
2018-11-29T09:46:55.465Z,9.63
2018-11-29T09:51:58.003Z,6.60
2018-11-29T09:57:00.555Z,7.00
2018-11-29T10:02:03.138Z,7.13
2018-11-29T10:07:05.767Z,11.70
2018-11-29T10:12:08.325Z,10.97
2018-11-29T10:17:10.865Z,7.17
2018-11-29T10:22:13.928Z,3.30
2018-11-29T10:27:16.018Z,1.53
2018-11-29T10:32:18.587Z,2.83
2018-11-29T10:37:21.160Z,2.43
2018-11-29T10:42:23.690Z,1.60
2018-11-29T10:47:26.281Z,2.83
2018-11-29T10:52:28.830Z,5.80
2018-11-29T10:57:31.362Z,1.33
2018-11-29T11:02:34.010Z,4.20
2018-11-29T11:07:36.603Z,7.83
2018-11-29T11:12:39.130Z,2.10
2018-11-29T11:17:41.662Z,4.17
2018-11-29T11:22:44.294Z,3.83
2018-11-29T11:27:46.834Z,3.33
2018-11-29T11:32:50.584Z,2.33
2018-11-29T11:37:53.130Z,5.23
2018-11-29T11:42:55.695Z,2.67
2018-11-29T11:48:03.254Z,6.60
2018-11-29T11:53:00.840Z,5.93
2018-11-29T11:58:03.473Z,2.93
2018-11-29T12:03:10.571Z,9.73
2018-11-29T12:08:13.158Z,10.67
2018-11-29T12:13:15.717Z,12.33
2018-11-29T12:18:18.290Z,12.47
2018-11-29T12:23:20.906Z,11.27
2018-11-29T12:28:23.471Z,10.83
2018-11-29T12:33:26.030Z,10.57
2018-11-29T12:38:28.603Z,10.83
2018-11-29T12:43:31.202Z,12.73
2018-11-29T12:48:33.782Z,15.40
2018-11-29T12:53:36.323Z,12.30
2018-11-29T12:58:38.868Z,20.43
2018-11-29T13:03:41.421Z,19.33
2018-11-29T13:08:43.970Z,21.17
2018-11-29T13:13:46.554Z,18.47
2018-11-29T13:18:49.106Z,17.13
2018-11-29T13:23:51.699Z,16.23
2018-11-29T13:28:54.290Z,18.27
2018-11-29T13:33:56.860Z,20.53
2018-11-29T13:38:59.426Z,16.20
2018-11-29T13:44:02.010Z,15.43
2018-11-29T13:49:05.058Z,16.00
2018-11-29T13:54:07.615Z,16.43
2018-11-29T13:59:10.256Z,16.37
2018-11-29T14:04:12.790Z,14.13
2018-11-29T14:09:15.398Z,16.83
2018-11-29T14:14:17.969Z,20.87
2018-11-29T14:19:20.554Z,18.53
2018-11-29T14:24:23.135Z,14.03
2018-11-29T14:30:37.821Z,15.40
2018-11-29T14:35:40.395Z,17.20
2018-11-29T14:40:42.967Z,15.03
2018-11-29T14:45:45.599Z,15.60
2018-11-29T14:50:48.156Z,25.33
2018-11-29T14:55:50.712Z,17.63
2018-11-29T15:00:53.282Z,22.77
2018-11-29T15:05:55.867Z,22.50
2018-11-29T15:10:58.530Z,21.07
2018-11-29T15:16:01.070Z,22.37
2018-11-29T15:21:03.674Z,24.27
2018-11-29T15:26:06.268Z,24.17
2018-11-29T15:31:08.836Z,22.97
2018-11-29T15:36:11.383Z,29.50
2018-11-29T15:41:18.141Z,24.40
2018-11-29T15:46:16.492Z,24.37
2018-11-29T15:51:19.138Z,26.07
2018-11-29T15:56:21.758Z,25.17
2018-11-29T16:01:24.297Z,12.70
2018-11-29T16:06:26.876Z,8.10
2018-11-29T16:11:29.484Z,6.73
2018-11-29T16:16:32.048Z,11.17
2018-11-29T16:21:34.594Z,8.40
2018-11-29T16:26:37.142Z,6.73
2018-11-29T16:31:39.702Z,23.47
2018-11-29T16:36:42.270Z,17.77
2018-11-29T16:41:44.924Z,26.73
2018-11-29T16:46:47.548Z,21.57
2018-11-29T16:51:50.175Z,27.27
2018-11-29T16:56:56.944Z,22.40
2018-11-29T17:01:59.506Z,22.93
2018-11-29T17:07:04.220Z,21.23
2018-11-29T17:12:06.907Z,19.80
2018-11-29T17:17:09.465Z,19.77
2018-11-29T17:22:12.045Z,23.47
2018-11-29T17:27:14.644Z,21.63
2018-11-29T17:32:17.210Z,34.03
2018-11-29T17:37:19.767Z,18.90
2018-11-29T17:42:22.374Z,24.07
2018-11-29T17:47:25.009Z,12.13
2018-11-29T17:52:27.566Z,14.07
2018-11-29T17:57:30.593Z,34.90
2018-11-29T18:02:33.163Z,21.60
2018-11-29T18:07:35.764Z,16.57
2018-11-29T18:12:38.410Z,22.13
2018-11-29T18:17:41.189Z,23.70
2018-11-29T18:22:43.849Z,23.63
2018-11-29T18:27:47.820Z,27.57
2018-11-29T18:32:50.440Z,25.87
2018-11-29T18:37:53.052Z,24.50
2018-11-29T18:42:56.993Z,28.27
2018-11-29T18:47:59.790Z,24.03
2018-11-29T18:53:02.465Z,24.40
2018-11-29T18:58:05.847Z,24.30
2018-11-29T19:03:08.513Z,26.57
2018-11-29T19:08:11.162Z,30.97
2018-11-29T19:13:13.908Z,39.37
2018-11-29T19:18:16.468Z,36.10
2018-11-29T19:23:19.027Z,40.43
2018-11-29T19:28:21.618Z,37.27
2018-11-29T19:33:25.751Z,37.67
2018-11-29T19:38:28.303Z,33.07
2018-11-29T19:43:31.053Z,35.03
2018-11-29T19:48:33.785Z,48.03
2018-11-29T19:53:36.566Z,62.37
2018-11-29T19:58:39.180Z,70.40
2018-11-29T20:03:42.762Z,73.53
2018-11-29T20:08:45.306Z,54.97
2018-11-29T20:13:47.958Z,50.37
2018-11-29T20:18:50.590Z,51.47
2018-11-29T20:23:53.312Z,53.73
2018-11-29T20:28:55.919Z,55.93
2018-11-29T20:33:58.631Z,47.17
2018-11-29T20:39:01.206Z,47.43
2018-11-29T20:44:03.796Z,43.20
2018-11-29T20:49:06.397Z,47.50
2018-11-29T20:54:08.997Z,43.17
2018-11-29T20:59:11.560Z,40.97
2018-11-29T21:04:14.134Z,36.40
2018-11-29T21:09:16.711Z,34.47
2018-11-29T21:14:19.264Z,35.07
2018-11-29T21:19:21.824Z,63.90
2018-11-29T21:24:24.412Z,72.67
2018-11-29T21:29:26.993Z,65.77
2018-11-29T21:34:29.615Z,69.10
2018-11-29T21:39:32.174Z,62.63
2018-11-29T21:44:34.786Z,58.50
2018-11-29T21:49:37.465Z,47.50
2018-11-29T21:54:40.061Z,51.87
2018-11-29T21:59:42.652Z,55.20
2018-11-29T22:04:45.198Z,56.60
2018-11-29T22:09:47.765Z,51.87
2018-11-29T22:14:50.295Z,39.40
2018-11-29T22:19:52.902Z,34.27
2018-11-29T22:24:55.478Z,32.80
2018-11-29T22:29:58.014Z,34.30
2018-11-29T22:35:00.573Z,31.40
2018-11-29T22:40:03.193Z,32.80
2018-11-29T22:45:06.984Z,35.40
2018-11-29T22:50:09.592Z,34.63
2018-11-29T22:55:12.149Z,31.57
2018-11-29T23:00:17.686Z,37.03
2018-11-29T23:05:20.359Z,34.93
2018-11-29T23:10:22.914Z,31.63
2018-11-29T23:15:25.479Z,31.10
2018-11-29T23:20:28.018Z,38.90
2018-11-29T23:25:30.624Z,37.90
2018-11-29T23:30:33.219Z,53.50
2018-11-29T23:35:35.769Z,63.50
2018-11-29T23:40:38.332Z,39.00
2018-11-29T23:45:40.926Z,36.57
2018-11-29T23:50:43.519Z,26.37
2018-11-29T23:55:46.063Z,25.53
